Time;durP1;ratioP1;P1;durP2;ratioP2;P2;SDS_P1;SDS_P2;PMS_P1;PMS_P2;Temp;Humidity;BMP_temperature;BMP_pressure;BME280_temperature;BME280_humidity;BME280_pressure;Samples;Min_cycle;Max_cycle;Signal;HPM_P1;HPM_P2
2021/06/21 00:00:21;;;;;;;;;6.67;6.00;;;;;20.73;77.80;100147.13;4991358;28;51218;-57
2021/06/21 00:02:46;;;;;;;;;8.00;8.00;;;;;20.67;81.20;100146.31;4984666;28;51072;-56
2021/06/21 00:05:14;;;;;;;;;8.00;8.00;;;;;20.63;79.26;100148.09;4991879;28;51171;-56
2021/06/21 00:07:40;;;;;;;;;8.00;8.00;;;;;20.67;78.03;100141.03;4988224;28;52744;-58
2021/06/21 00:10:08;;;;;;;;;8.33;8.00;;;;;20.71;77.28;100148.91;4993322;28;50962;-57
2021/06/21 00:12:33;;;;;;;;;8.00;8.00;;;;;20.68;77.24;100143.66;4994633;28;51092;-57
2021/06/21 00:14:58;;;;;;;;;8.33;8.33;;;;;20.70;76.25;100141.88;4994674;28;50990;-57
2021/06/21 00:17:24;;;;;;;;;7.67;7.67;;;;;20.75;76.34;100143.59;4993160;28;51924;-58
2021/06/21 00:19:49;;;;;;;;;6.00;6.00;;;;;20.79;76.78;100146.19;4982634;28;51162;-56
2021/06/21 00:22:15;;;;;;;;;6.00;6.00;;;;;20.82;76.35;100140.84;4995112;28;51095;-57
2021/06/21 00:24:44;;;;;;;;;8.00;8.00;;;;;20.85;75.90;100140.84;4993771;28;51417;-57
2021/06/21 00:27:10;;;;;;;;;9.00;9.00;;;;;20.84;76.01;100140.84;4994774;28;51120;-57
2021/06/21 00:29:36;;;;;;;;;10.67;10.00;;;;;20.78;76.51;100139.16;4994801;28;51018;-57
2021/06/21 00:32:01;;;;;;;;;8.33;8.33;;;;;20.74;76.34;100142.72;4995377;28;50966;-57
2021/06/21 00:34:26;;;;;;;;;10.00;9.67;;;;;20.72;76.14;100144.50;4994136;28;51319;-56
2021/06/21 00:36:52;;;;;;;;;9.67;9.67;;;;;20.70;76.22;100155.06;4990867;28;51887;-58
2021/06/21 00:39:17;;;;;;;;;9.00;9.00;;;;;20.68;76.01;100153.31;4992659;28;51006;-57
2021/06/21 00:41:43;;;;;;;;;8.00;8.00;;;;;20.66;76.24;100149.84;4994927;28;51037;-56
2021/06/21 00:44:09;;;;;;;;;7.00;7.00;;;;;20.64;76.43;100147.22;4994946;28;50973;-57
2021/06/21 00:46:34;;;;;;;;;7.00;6.00;;;;;20.59;76.56;100147.28;4993297;28;52132;-59
2021/06/21 00:49:00;;;;;;;;;8.00;6.67;;;;;20.54;76.94;100162.25;4994671;28;51213;-56
2021/06/21 00:51:25;;;;;;;;;8.00;8.00;;;;;20.51;77.97;100161.41;4994859;28;51646;-57
2021/06/21 00:53:52;;;;;;;;;7.67;7.00;;;;;20.44;78.07;100161.47;4976318;28;51244;-58
2021/06/21 00:56:18;;;;;;;;;6.00;6.00;;;;;20.37;78.68;100153.63;4985913;28;51231;-58
2021/06/21 00:58:44;;;;;;;;;6.00;6.00;;;;;20.29;78.17;100151.91;4977288;28;51536;-57
2021/06/21 01:01:09;;;;;;;;;6.00;6.00;;;;;20.23;78.54;100159.91;4983382;28;51633;-57
2021/06/21 01:03:34;;;;;;;;;6.67;6.67;;;;;20.20;78.10;100157.28;4984616;28;51090;-57
2021/06/21 01:06:01;;;;;;;;;8.00;8.00;;;;;20.21;78.23;100159.00;4986791;28;51232;-58
2021/06/21 01:08:26;;;;;;;;;5.67;5.67;;;;;20.18;78.32;100161.69;4986990;28;51652;-57
2021/06/21 01:10:55;;;;;;;;;6.00;6.00;;;;;20.14;78.90;100155.53;4985826;28;51625;-57
2021/06/21 01:13:39;;;;;;;;;8.67;8.67;;;;;20.12;79.15;100153.81;4971712;28;51669;-58
2021/06/21 01:16:16;;;;;;;;;9.67;9.67;;;;;20.11;78.70;100154.72;4986497;28;51259;-58
2021/06/21 01:19:22;;;;;;;;;11.00;10.00;;;;;20.05;79.74;100143.31;4986997;28;51142;-56
2021/06/21 01:22:13;;;;;;;;;13.33;13.33;;;;;20.01;80.03;100143.38;4984265;28;51285;-56
2021/06/21 01:24:59;;;;;;;;;10.67;10.67;;;;;19.99;80.08;100145.13;4992482;28;50895;-56
2021/06/21 01:27:32;;;;;;;;;11.33;11.00;;;;;19.98;80.08;100146.03;4993209;28;51684;-57
2021/06/21 01:30:08;;;;;;;;;12.00;11.33;;;;;19.99;80.06;100153.94;4994314;28;51029;-57
2021/06/21 01:32:38;;;;;;;;;13.33;13.33;;;;;20.00;79.98;100157.41;4994357;28;51087;-57
2021/06/21 01:35:06;;;;;;;;;14.67;14.00;;;;;19.99;79.70;100155.66;4994284;28;51073;-57
2021/06/21 01:37:32;;;;;;;;;15.25;15.00;;;;;20.00;79.58;100160.94;4978656;28;53202;-57
2021/06/21 01:40:01;;;;;;;;;14.33;14.33;;;;;20.01;79.79;100167.94;4987734;28;51124;-58
2021/06/21 01:42:26;;;;;;;;;15.00;14.67;;;;;20.03;79.55;100153.03;4992364;28;51124;-56
2021/06/21 01:45:01;;;;;;;;;16.00;15.00;;;;;20.05;79.49;100159.13;4994262;28;51174;-57
2021/06/21 01:47:29;;;;;;;;;15.75;15.75;;;;;20.07;79.80;100167.91;4993746;28;53562;-57
2021/06/21 01:49:56;;;;;;;;;16.75;15.75;;;;;20.06;79.50;100171.44;4976417;28;51070;-58
2021/06/21 01:52:23;;;;;;;;;15.33;15.33;;;;;20.03;79.77;100170.59;4993003;28;51081;-58
2021/06/21 01:54:55;;;;;;;;;16.33;16.33;;;;;20.00;79.58;100155.66;4992958;28;50895;-58
2021/06/21 01:57:27;;;;;;;;;14.67;14.67;;;;;20.00;79.69;100162.69;4990941;28;50969;-58
2021/06/21 01:59:53;;;;;;;;;16.33;15.67;;;;;20.03;79.64;100171.47;4985097;28;51143;-57
2021/06/21 02:02:23;;;;;;;;;12.67;12.67;;;;;20.10;79.08;100166.16;4986383;28;51468;-57
2021/06/21 02:04:53;;;;;;;;;16.67;14.67;;;;;20.09;78.60;100178.44;4986278;28;51447;-57
2021/06/21 02:07:21;;;;;;;;;15.67;15.00;;;;;20.06;79.12;100184.59;4985797;28;51790;-59
2021/06/21 02:09:48;;;;;;;;;12.00;11.67;;;;;20.06;78.69;100186.38;4968274;28;51059;-57
2021/06/21 02:12:18;;;;;;;;;10.67;9.67;;;;;20.00;77.96;100176.75;4986065;28;51445;-57
2021/06/21 02:14:45;;;;;;;;;8.00;8.00;;;;;19.97;77.34;100182.00;4984516;28;51378;-58
2021/06/21 02:17:12;;;;;;;;;8.33;8.33;;;;;19.90;77.22;100180.31;4985722;28;51997;-56
2021/06/21 02:19:38;;;;;;;;;8.00;7.00;;;;;19.83;77.00;100186.47;4985477;28;51115;-56
2021/06/21 02:22:04;;;;;;;;;6.00;5.00;;;;;19.77;76.78;100185.63;4985301;28;51299;-57
2021/06/21 02:24:29;;;;;;;;;7.33;7.33;;;;;19.74;76.83;100183.00;4984610;28;51888;-57
2021/06/21 02:26:55;;;;;;;;;4.00;4.00;;;;;19.73;76.18;100183.91;4985522;28;52929;-57
2021/06/21 02:29:23;;;;;;;;;6.67;6.67;;;;;19.67;76.48;100176.91;4988401;28;51576;-55
2021/06/21 02:31:50;;;;;;;;;5.00;5.00;;;;;19.64;76.34;100176.94;4983634;28;51084;-58
2021/06/21 02:34:16;;;;;;;;;6.00;5.00;;;;;19.61;76.36;100176.06;4989191;28;51289;-57
2021/06/21 02:36:42;;;;;;;;;5.00;5.00;;;;;19.57;76.27;100188.38;4975354;28;51359;-57
2021/06/21 02:39:08;;;;;;;;;5.67;5.33;;;;;19.52;75.74;100185.78;4988654;28;51702;-57
2021/06/21 02:41:34;;;;;;;;;5.33;5.33;;;;;19.46;76.39;100196.31;4985574;28;51478;-57
2021/06/21 02:44:00;;;;;;;;;5.00;4.00;;;;;19.39;76.07;100189.34;4985633;28;51037;-57
2021/06/21 02:46:25;;;;;;;;;4.33;4.33;;;;;19.34;76.29;100191.13;4985454;28;51676;-55
2021/06/21 02:48:51;;;;;;;;;5.00;5.00;;;;;19.32;76.23;100193.75;4985733;28;51100;-56
2021/06/21 02:51:31;;;;;;;;;4.00;4.00;;;;;19.31;76.21;100191.13;4984900;28;51147;-57
2021/06/21 02:54:03;;;;;;;;;5.33;5.33;;;;;19.34;76.67;100191.13;4983677;28;51092;-57
2021/06/21 02:56:45;;;;;;;;;4.00;4.00;;;;;19.45;77.10;100193.69;4985174;28;51569;-56
2021/06/21 02:59:17;;;;;;;;;5.00;5.00;;;;;19.54;76.73;100194.53;4967959;28;51473;-57
2021/06/21 03:01:50;;;;;;;;;5.00;5.00;;;;;19.62;75.99;100207.66;4983523;28;51061;-56
2021/06/21 03:04:18;;;;;;;;;4.00;3.67;;;;;19.66;75.85;100203.28;4985845;28;51320;-55
2021/06/21 03:06:46;;;;;;;;;2.00;2.00;;;;;19.71;75.89;100212.03;4992450;28;50954;-57
2021/06/21 03:09:16;;;;;;;;;5.00;4.00;;;;;19.76;75.77;100218.13;4989865;28;51220;-57
2021/06/21 03:11:43;;;;;;;;;5.67;4.67;;;;;19.79;75.46;100209.34;4985062;28;51572;-57
2021/06/21 03:14:09;;;;;;;;;6.33;6.00;;;;;19.83;75.11;100215.47;4985638;28;51453;-57
2021/06/21 03:16:35;;;;;;;;;6.33;6.00;;;;;19.84;74.68;100212.81;4974597;28;52431;-58
2021/06/21 03:19:01;;;;;;;;;5.00;5.00;;;;;19.85;74.50;100216.34;4983858;28;51251;-58
2021/06/21 03:21:27;;;;;;;;;6.00;6.00;;;;;19.77;74.54;100211.97;4984580;28;52459;-56
2021/06/21 03:23:55;;;;;;;;;6.00;6.00;;;;;19.69;74.43;100219.03;4966180;28;51267;-57
2021/06/21 03:26:29;;;;;;;;;6.00;5.33;;;;;19.63;74.92;100213.81;4984787;28;52033;-58
2021/06/21 03:28:55;;;;;;;;;5.67;5.33;;;;;19.57;74.90;100219.97;4985037;28;51392;-58
2021/06/21 03:31:22;;;;;;;;;7.00;6.67;;;;;19.52;75.22;100222.66;4985062;28;51616;-56
2021/06/21 03:33:47;;;;;;;;;6.00;6.00;;;;;19.51;75.43;100215.59;4984905;28;51109;-58
2021/06/21 03:36:13;;;;;;;;;6.00;6.00;;;;;19.48;75.33;100215.63;4984383;28;51837;-57
2021/06/21 03:38:38;;;;;;;;;7.33;6.67;;;;;19.50;75.47;100213.00;4986151;28;51046;-57
2021/06/21 03:41:05;;;;;;;;;6.33;6.33;;;;;19.49;75.55;100212.13;4990632;28;51115;-57
2021/06/21 03:43:32;;;;;;;;;7.00;6.67;;;;;19.48;75.32;100214.75;4992564;28;50988;-58
2021/06/21 03:46:01;;;;;;;;;6.00;6.00;;;;;19.44;75.57;100207.75;4985330;28;52172;-58
2021/06/21 03:48:27;;;;;;;;;5.67;5.67;;;;;19.39;75.29;100215.66;4995710;28;51029;-57
2021/06/21 03:50:53;;;;;;;;;6.67;6.67;;;;;19.36;75.73;100210.41;4985570;28;54643;-57
2021/06/21 03:53:22;;;;;;;;;6.00;6.00;;;;;19.39;75.72;100218.31;4948006;28;51440;-58
2021/06/21 03:55:48;;;;;;;;;7.00;7.00;;;;;19.39;75.22;100232.31;4987893;28;52299;-56
2021/06/21 03:58:13;;;;;;;;;8.67;8.67;;;;;19.39;75.91;100229.69;4975349;28;51172;-59
2021/06/21 04:00:39;;;;;;;;;8.00;7.67;;;;;19.41;76.00;100230.56;4988232;28;51134;-57
2021/06/21 04:03:06;;;;;;;;;7.00;7.00;;;;;19.43;75.94;100227.94;4988503;28;51272;-56
2021/06/21 04:05:32;;;;;;;;;9.00;8.33;;;;;19.44;75.75;100227.06;4987807;28;51123;-58
2021/06/21 04:07:58;;;;;;;;;8.00;8.00;;;;;19.45;75.38;100230.53;4987500;28;51196;-56
2021/06/21 04:10:26;;;;;;;;;8.33;8.00;;;;;19.46;75.59;100233.19;4987052;28;51531;-58
2021/06/21 04:12:53;;;;;;;;;7.67;7.67;;;;;19.43;75.08;100235.84;4970528;28;51085;-58
2021/06/21 04:15:22;;;;;;;;;7.00;7.00;;;;;19.35;74.69;100230.56;4984467;28;52764;-58
2021/06/21 04:17:48;;;;;;;;;9.00;9.00;;;;;19.29;75.04;100235.88;4987746;28;51148;-58
2021/06/21 04:20:18;;;;;;;;;7.67;7.67;;;;;19.19;74.98;100240.31;4988761;28;50986;-57
2021/06/21 04:22:44;;;;;;;;;8.00;7.67;;;;;19.13;75.45;100229.78;4995347;28;51036;-57
2021/06/21 04:25:13;;;;;;;;;7.00;7.00;;;;;19.07;75.40;100242.94;4984910;28;51100;-57
2021/06/21 04:27:39;;;;;;;;;9.67;8.00;;;;;19.03;75.76;100256.06;4988808;28;51027;-58
2021/06/21 04:30:10;;;;;;;;;8.33;7.67;;;;;19.05;76.04;100253.47;4988797;28;50960;-58
2021/06/21 04:32:36;;;;;;;;;8.67;8.67;;;;;19.07;76.39;100246.44;4987441;28;51375;-57
2021/06/21 04:35:03;;;;;;;;;8.33;8.33;;;;;19.09;76.04;100242.06;4986779;28;51803;-57
2021/06/21 04:37:28;;;;;;;;;8.67;8.33;;;;;19.15;76.36;100251.72;4972996;28;51187;-57
2021/06/21 04:39:53;;;;;;;;;5.67;5.33;;;;;19.21;75.90;100245.53;4987479;28;51367;-57
2021/06/21 04:42:19;;;;;;;;;7.33;7.33;;;;;19.24;76.02;100246.44;4987690;28;51200;-57
2021/06/21 04:44:45;;;;;;;;;7.67;7.33;;;;;19.27;75.78;100249.03;4986409;28;51238;-58
2021/06/21 04:47:11;;;;;;;;;6.67;6.67;;;;;19.30;75.76;100245.50;4986900;28;51772;-57
2021/06/21 04:49:36;;;;;;;;;7.00;7.00;;;;;19.36;75.58;100252.53;4987277;28;51144;-58
2021/06/21 04:52:05;;;;;;;;;9.00;9.00;;;;;19.53;75.90;100250.72;4987316;28;51543;-56
2021/06/21 04:54:30;;;;;;;;;11.00;9.00;;;;;19.78;75.94;100244.47;4987158;28;52121;-57
2021/06/21 04:56:56;;;;;;;;;6.00;6.00;;;;;20.01;74.98;100262.81;4975068;28;51160;-57
2021/06/21 04:59:21;;;;;;;;;8.00;8.00;;;;;20.13;74.12;100258.38;4989355;28;51097;-57
2021/06/21 05:01:46;;;;;;;;;8.00;7.00;;;;;20.16;73.93;100272.41;4976887;28;50973;-58
2021/06/21 05:04:12;;;;;;;;;9.00;8.67;;;;;20.19;73.06;100271.50;4990970;28;51323;-57
2021/06/21 05:06:37;;;;;;;;;7.33;7.33;;;;;20.15;73.29;100270.66;4992125;28;51164;-58
2021/06/21 05:09:05;;;;;;;;;10.00;9.00;;;;;20.17;73.16;100270.63;4994537;28;51209;-57
2021/06/21 05:11:30;;;;;;;;;8.67;8.33;;;;;20.15;72.54;100272.41;4977379;28;51319;-57
2021/06/21 05:13:56;;;;;;;;;9.00;9.00;;;;;20.10;72.90;100276.84;4994190;28;53010;-57
2021/06/21 05:16:21;;;;;;;;;8.00;8.00;;;;;19.99;73.27;100280.41;4994517;28;51054;-56
2021/06/21 05:18:47;;;;;;;;;9.67;9.67;;;;;19.99;73.08;100274.25;4994515;28;51259;-56
2021/06/21 05:21:12;;;;;;;;;8.33;8.33;;;;;19.99;72.99;100272.50;4988822;28;51618;-57
2021/06/21 05:23:37;;;;;;;;;10.00;9.00;;;;;20.05;73.13;100288.28;4993160;28;52122;-57
2021/06/21 05:26:04;;;;;;;;;10.00;10.00;;;;;20.03;72.60;100286.53;4994077;28;51049;-57
2021/06/21 05:28:29;;;;;;;;;12.33;12.33;;;;;20.02;72.92;100280.38;4994506;28;51058;-57
2021/06/21 05:30:54;;;;;;;;;12.75;12.25;;;;;20.06;73.17;100278.63;4984523;28;51603;-57
2021/06/21 05:33:20;;;;;;;;;12.33;11.67;;;;;20.20;73.61;100278.53;4986284;28;52228;-56
2021/06/21 05:35:45;;;;;;;;;11.67;11.33;;;;;20.32;72.51;100282.84;4986164;28;51354;-57
2021/06/21 05:38:11;;;;;;;;;8.00;7.33;;;;;20.42;72.27;100273.13;4988194;28;51237;-50
2021/06/21 05:40:36;;;;;;;;;11.00;11.00;;;;;20.49;72.16;100285.38;4981652;28;51584;-47
2021/06/21 05:43:02;;;;;;;;;8.00;8.00;;;;;20.45;71.77;100289.78;4984067;28;51987;-50
2021/06/21 05:45:27;;;;;;;;;8.67;8.00;;;;;20.35;70.67;100292.50;4977893;28;51054;-52
2021/06/21 05:47:53;;;;;;;;;9.00;9.00;;;;;20.22;71.29;100299.63;4985790;28;51450;-52
2021/06/21 05:50:19;;;;;;;;;12.33;11.33;;;;;20.19;71.45;100297.88;4991031;28;51359;-52
2021/06/21 05:52:44;;;;;;;;;9.67;9.67;;;;;20.19;71.31;100303.16;4984268;28;51751;-49
2021/06/21 05:55:10;;;;;;;;;12.67;10.00;;;;;20.24;70.86;100306.63;4977828;28;51137;-50
2021/06/21 05:57:36;;;;;;;;;9.33;9.33;;;;;20.28;71.11;100308.38;4985036;28;51640;-50
2021/06/21 06:00:04;;;;;;;;;9.00;9.00;;;;;20.41;71.41;100303.03;4985815;28;51065;-49
2021/06/21 06:02:29;;;;;;;;;11.67;11.00;;;;;20.50;70.56;100313.50;4985702;28;53495;-49
2021/06/21 06:04:55;;;;;;;;;9.00;9.00;;;;;20.56;70.18;100313.47;4986945;28;51123;-49
2021/06/21 06:07:20;;;;;;;;;9.00;9.00;;;;;20.65;70.02;100317.78;4988336;28;51604;-49
2021/06/21 06:09:49;;;;;;;;;7.33;7.33;;;;;20.62;69.30;100323.09;4984547;28;51169;-48
2021/06/21 06:12:14;;;;;;;;;9.33;9.00;;;;;20.55;69.50;100322.25;4987214;28;52804;-48
2021/06/21 06:14:40;;;;;;;;;8.33;8.33;;;;;20.53;69.61;100329.28;4984152;28;51635;-50
2021/06/21 06:17:05;;;;;;;;;11.67;10.00;;;;;20.61;69.89;100331.88;4982736;28;51758;-49
2021/06/21 06:19:30;;;;;;;;;9.33;9.33;;;;;20.77;69.65;100330.00;4979072;28;51113;-53
2021/06/21 06:21:56;;;;;;;;;7.33;7.00;;;;;20.90;68.80;100335.22;4981665;28;51139;-52
2021/06/21 06:24:21;;;;;;;;;12.33;11.33;;;;;21.03;68.75;100333.34;4982649;28;51145;-49
2021/06/21 06:26:46;;;;;;;;;10.67;10.67;;;;;21.20;68.03;100336.72;4977140;28;51365;-52
2021/06/21 06:29:15;;;;;;;;;7.33;7.33;;;;;21.43;66.98;100346.19;4983545;28;51704;-49
2021/06/21 06:31:48;;;;;;;;;8.67;7.67;;;;;21.54;66.70;100339.91;4962011;28;54307;-49
2021/06/21 06:34:14;;;;;;;;;9.33;9.33;;;;;21.45;65.58;100346.19;4984342;28;51068;-51
2021/06/21 06:36:40;;;;;;;;;10.00;10.00;;;;;21.41;65.55;100347.09;4984431;28;51626;-49
2021/06/21 06:39:06;;;;;;;;;9.00;8.67;;;;;21.55;65.68;100339.91;4988126;28;51255;-50
2021/06/21 06:41:32;;;;;;;;;8.00;7.67;;;;;22.12;65.51;100332.22;4985088;28;52443;-51
2021/06/21 06:43:57;;;;;;;;;10.33;9.67;;;;;22.52;63.96;100317.56;4986866;28;51133;-50
2021/06/21 06:46:23;;;;;;;;;11.67;11.67;;;;;22.83;63.13;100318.88;4985817;28;51508;-49
2021/06/21 06:48:49;;;;;;;;;13.00;12.00;;;;;23.17;62.77;100313.88;4987590;28;51353;-50
2021/06/21 06:51:15;;;;;;;;;8.00;8.00;;;;;23.71;61.79;100316.41;4991307;28;51025;-49
2021/06/21 06:53:49;;;;;;;;;7.00;7.00;;;;;23.99;60.69;100319.34;4984196;28;51487;-51
2021/06/21 06:58:58;;;;;;;;;9.00;7.67;;;;;27.19;58.23;100309.75;4992114;28;51075;-52
2021/06/21 07:01:28;;;;;;;;;8.00;8.00;;;;;27.52;51.97;100318.28;4991041;28;51034;-51
2021/06/21 07:03:53;;;;;;;;;9.00;8.00;;;;;27.15;52.24;100329.44;4990623;28;51234;-53
2021/06/21 07:06:19;;;;;;;;;7.00;7.00;;;;;26.81;50.37;100320.75;4973526;28;51168;-52
2021/06/21 07:08:45;;;;;;;;;10.00;10.00;;;;;26.07;50.36;100323.03;4992246;28;51095;-52
2021/06/21 07:11:13;;;;;;;;;7.67;7.67;;;;;25.59;50.56;100329.72;4989374;28;53024;-53
2021/06/21 07:13:38;;;;;;;;;8.00;7.67;;;;;25.23;51.32;100332.44;4991569;28;51029;-51
2021/06/21 07:16:04;;;;;;;;;8.00;8.00;;;;;25.19;52.03;100331.66;4991360;28;51743;-52
2021/06/21 07:18:29;;;;;;;;;7.00;7.00;;;;;25.28;52.10;100336.72;4992655;28;51029;-53
2021/06/21 07:20:55;;;;;;;;;7.00;7.00;;;;;25.50;52.33;100338.81;4971862;28;52615;-52
2021/06/21 07:23:20;;;;;;;;;9.00;8.00;;;;;26.07;52.19;100338.97;4985698;28;51160;-49
2021/06/21 07:25:46;;;;;;;;;8.33;7.67;;;;;26.32;51.31;100335.59;4992098;28;51035;-54
2021/06/21 07:28:12;;;;;;;;;8.33;7.33;;;;;26.72;50.62;100337.91;4992684;28;51045;-54
2021/06/21 07:30:37;;;;;;;;;8.00;7.33;;;;;28.61;51.38;100347.19;4991434;28;51332;-51
2021/06/21 07:33:03;;;;;;;;;8.00;8.00;;;;;30.42;47.24;100345.53;4992360;28;51263;-50
2021/06/21 07:35:31;;;;;;;;;7.33;7.33;;;;;31.06;43.21;100353.13;4989583;28;51172;-53
2021/06/21 07:37:57;;;;;;;;;7.00;7.00;;;;;30.56;41.61;100352.88;4994934;28;50914;-53
2021/06/21 07:40:22;;;;;;;;;8.00;8.00;;;;;29.52;42.27;100355.00;4990445;28;51048;-49
2021/06/21 07:42:47;;;;;;;;;6.00;6.00;;;;;28.63;43.68;100367.56;4991986;28;51037;-52
2021/06/21 07:45:13;;;;;;;;;6.00;6.00;;;;;28.00;44.15;100357.50;4991898;28;50954;-50
2021/06/21 07:47:40;;;;;;;;;8.33;7.00;;;;;27.80;45.04;100363.59;4980794;28;51109;-51
2021/06/21 07:50:06;;;;;;;;;8.00;7.33;;;;;27.95;44.83;100364.81;4991716;28;51256;-53
2021/06/21 07:52:32;;;;;;;;;6.67;6.67;;;;;28.06;44.53;100372.41;4984486;28;51232;-51
2021/06/21 07:54:59;;;;;;;;;8.67;8.00;;;;;28.21;44.51;100366.50;4991907;28;51258;-53
2021/06/21 07:57:26;;;;;;;;;9.00;9.00;;;;;28.52;44.63;100375.13;4985283;28;51087;-50
2021/06/21 07:59:52;;;;;;;;;7.00;7.00;;;;;29.01;44.47;100368.75;4983569;28;52099;-52
2021/06/21 08:02:17;;;;;;;;;5.00;4.00;;;;;30.62;43.29;100376.72;4966206;28;50983;-51
2021/06/21 08:04:42;;;;;;;;;7.00;7.00;;;;;31.38;40.46;100379.25;4984331;28;51225;-49
2021/06/21 08:07:08;;;;;;;;;7.33;6.67;;;;;31.26;39.13;100378.94;4984118;28;51695;-49
2021/06/21 08:09:33;;;;;;;;;7.67;7.67;;;;;30.70;38.73;100375.44;4982147;28;51258;-48
2021/06/21 08:12:00;;;;;;;;;3.00;3.00;;;;;30.73;38.63;100386.94;4983855;28;51124;-53
2021/06/21 08:14:25;;;;;;;;;4.33;3.33;;;;;32.28;35.95;100382.53;4982282;28;51251;-52
2021/06/21 08:16:50;;;;;;;;;3.00;2.67;;;;;33.83;34.73;100390.59;4983567;28;51346;-50
2021/06/21 08:19:16;;;;;;;;;2.00;2.00;;;;;35.41;33.24;100396.59;4983900;28;51640;-51
2021/06/21 08:21:53;;;;;;;;;2.00;2.00;;;;;36.44;30.53;100400.16;4983639;28;51125;-49
2021/06/21 08:24:18;;;;;;;;;2.33;2.33;;;;;37.25;30.43;100399.59;4984366;28;51690;-53
2021/06/21 08:26:44;;;;;;;;;2.00;2.00;;;;;38.56;29.67;100394.69;4984483;28;51813;-48
2021/06/21 08:29:09;;;;;;;;;3.33;3.33;;;;;39.96;27.54;100398.25;4979241;28;51619;-54
2021/06/21 08:31:43;;;;;;;;;3.00;2.67;;;;;40.41;25.46;100396.94;4968741;28;51186;-52
2021/06/21 08:34:15;;;;;;;;;1.00;1.00;;;;;40.26;24.68;100394.59;4980706;28;51705;-51
2021/06/21 08:36:43;;;;;;;;;3.00;3.00;;;;;40.30;23.29;100389.78;4986910;28;51622;-53
2021/06/21 08:39:10;;;;;;;;;1.33;1.33;;;;;40.60;21.34;100389.81;4987203;28;51669;-52
2021/06/21 08:41:37;;;;;;;;;2.00;1.00;;;;;40.35;21.70;100402.94;4985188;28;51184;-49
2021/06/21 08:44:07;;;;;;;;;3.00;3.00;;;;;40.64;22.40;100391.25;4987312;28;51230;-49
2021/06/21 08:46:34;;;;;;;;;2.00;2.00;;;;;41.66;21.61;100383.53;4984593;28;51265;-51
2021/06/21 08:49:03;;;;;;;;;4.67;3.33;;;;;42.45;21.44;100385.88;4986667;28;52281;-51
2021/06/21 08:51:32;;;;;;;;;1.00;1.00;;;;;43.79;21.07;100385.00;4986625;28;51176;-53
2021/06/21 08:53:58;;;;;;;;;2.00;2.00;;;;;43.68;19.40;100386.16;4985718;28;51239;-52
2021/06/21 08:56:24;;;;;;;;;1.67;1.67;;;;;43.49;18.23;100395.44;4981094;28;51106;-54
2021/06/21 08:58:53;;;;;;;;;2.00;2.00;;;;;43.19;17.51;100398.47;4986607;28;52027;-54
2021/06/21 09:01:18;;;;;;;;;4.00;4.00;;;;;43.88;18.37;100391.41;4986714;28;51153;-52
2021/06/21 09:03:46;;;;;;;;;2.33;2.33;;;;;44.26;18.30;100393.75;4983354;28;51588;-52
2021/06/21 09:06:21;;;;;;;;;1.33;1.33;;;;;43.86;17.98;100397.03;4987024;28;51210;-54
2021/06/21 09:08:56;;;;;;;;;0.00;0.00;;;;;44.23;17.87;100394.94;4986020;28;51289;-52
2021/06/21 09:11:49;;;;;;;;;1.00;1.00;;;;;45.96;16.94;100396.91;4986632;28;51170;-53
2021/06/21 09:14:25;;;;;;;;;2.67;1.67;;;;;47.60;16.15;100397.69;4985868;28;51018;-54
2021/06/21 09:16:51;;;;;;;;;1.00;0.00;;;;;47.86;14.13;100396.34;4992480;28;51235;-52
2021/06/21 09:19:18;;;;;;;;;0.00;0.00;;;;;47.66;13.99;100399.66;4993576;28;52406;-50
2021/06/21 09:21:44;;;;;;;;;0.33;0.33;;;;;48.05;13.78;100396.75;4992717;28;51424;-52
2021/06/21 09:24:28;;;;;;;;;2.50;2.50;;;;;47.60;13.13;100397.69;4992419;28;51190;-51
2021/06/21 09:27:00;;;;;;;;;1.00;0.50;;;;;47.59;13.56;100404.22;4990706;28;51443;-53
2021/06/21 09:29:36;;;;;;;;;2.33;1.67;;;;;47.51;13.86;100401.56;4972198;28;52784;-52
2021/06/21 09:32:03;;;;;;;;;2.00;2.00;;;;;45.80;13.67;100398.66;4990482;28;51156;-53
2021/06/21 09:34:29;;;;;;;;;1.00;0.67;;;;;43.46;13.58;100401.25;4992075;28;51081;-52
2021/06/21 09:37:07;;;;;;;;;1.00;1.00;;;;;42.97;15.26;100399.81;4992718;28;51305;-53
2021/06/21 09:39:33;;;;;;;;;3.00;1.67;;;;;45.00;15.04;100403.09;4993331;28;51109;-52
2021/06/21 09:42:20;;;;;;;;;3.00;1.00;;;;;47.07;13.55;100406.78;4992328;28;51016;-53
2021/06/21 09:44:56;;;;;;;;;0.67;0.67;;;;;47.23;13.53;100415.94;4993611;28;50946;-50
2021/06/21 09:47:37;;;;;;;;;0.67;0.67;;;;;48.32;13.04;100419.09;4993412;28;51096;-50
2021/06/21 09:50:33;;;;;;;;;1.00;1.00;;;;;48.52;12.74;100423.97;4992436;28;51096;-52
2021/06/21 09:53:02;;;;;;;;;7.67;7.33;;;;;47.37;12.88;100426.09;4984748;28;50975;-50
2021/06/21 09:55:37;;;;;;;;;1.00;1.00;;;;;46.54;13.56;100421.25;4989711;28;51093;-49
2021/06/21 09:58:21;;;;;;;;;0.33;0.33;;;;;47.16;13.45;100411.16;4988499;28;51275;-51
2021/06/21 10:00:48;;;;;;;;;1.00;1.00;;;;;48.59;12.79;100422.16;4990255;28;54016;-51
2021/06/21 10:03:20;;;;;;;;;1.67;1.00;;;;;49.00;11.60;100429.75;4993078;28;51192;-53
2021/06/21 10:06:07;;;;;;;;;0.33;0.33;;;;;48.79;11.06;100427.88;4990370;28;51218;-52
2021/06/21 10:08:48;;;;;;;;;2.00;2.00;;;;;47.38;11.93;100432.44;4993198;28;51193;-53
2021/06/21 10:11:27;;;;;;;;;1.00;1.00;;;;;45.44;12.22;100437.47;4981196;28;52021;-50
2021/06/21 10:13:52;;;;;;;;;2.00;1.67;;;;;43.37;13.70;100436.69;4993084;28;51021;-50
2021/06/21 10:16:18;;;;;;;;;2.00;2.00;;;;;41.29;14.20;100438.81;4993394;28;50954;-50
2021/06/21 10:18:43;;;;;;;;;1.00;1.00;;;;;38.79;15.83;100440.75;4993720;28;51255;-50
2021/06/21 10:21:09;;;;;;;;;0.67;0.67;;;;;37.45;17.61;100437.78;4995455;28;51013;-51
2021/06/21 10:23:35;;;;;;;;;0.00;0.00;;;;;36.78;18.24;100435.56;4988776;28;51148;-53
2021/06/21 10:26:00;;;;;;;;;4.67;4.67;;;;;38.17;18.41;100438.50;4991679;28;51290;-51
2021/06/21 10:28:26;;;;;;;;;1.00;1.00;;;;;38.79;18.02;100421.75;4990911;28;51105;-52
2021/06/21 10:30:52;;;;;;;;;2.00;2.00;;;;;38.83;18.48;100424.06;4974424;28;51001;-52
2021/06/21 10:33:18;;;;;;;;;0.00;0.00;;;;;38.36;17.73;100426.16;4991685;28;51146;-52
2021/06/21 10:35:43;;;;;;;;;0.00;0.00;;;;;37.84;18.64;100427.50;4992139;28;50930;-53
2021/06/21 10:38:08;;;;;;;;;1.00;1.00;;;;;37.73;18.80;100420.25;4998748;28;50845;-51
2021/06/21 10:40:54;;;;;;;;;1.00;1.00;;;;;37.12;18.68;100421.28;4992271;28;51390;-50
2021/06/21 10:43:43;;;;;;;;;1.00;1.00;;;;;36.49;19.10;100422.31;4991771;28;51052;-51
2021/06/21 10:46:14;;;;;;;;;5.67;3.00;;;;;35.86;19.54;100413.25;4991998;28;51089;-52
2021/06/21 10:49:02;;;;;;;;;1.00;1.00;;;;;35.81;20.07;100420.81;4987838;28;51092;-52
2021/06/21 10:51:39;;;;;;;;;1.00;0.00;;;;;35.58;20.24;100417.00;4990473;28;54287;-52
2021/06/21 10:54:07;;;;;;;;;0.67;0.00;;;;;35.52;20.98;100425.53;4990608;28;51005;-50
2021/06/21 10:56:48;;;;;;;;;2.00;2.00;;;;;35.50;20.67;100416.69;4991592;28;51100;-49
2021/06/21 10:59:15;;;;;;;;;1.00;0.00;;;;;37.06;21.21;100419.94;4992689;28;50951;-53
2021/06/21 11:01:49;;;;;;;;;1.00;1.00;;;;;39.01;19.62;100415.38;4991707;28;51782;-50
2021/06/21 11:04:34;;;;;;;;;2.67;2.33;;;;;40.45;18.22;100420.16;4991761;28;51122;-50
2021/06/21 11:07:11;;;;;;;;;3.00;2.00;;;;;41.65;17.28;100424.56;4990984;28;51109;-53
2021/06/21 11:09:45;;;;;;;;;2.00;2.00;;;;;41.83;16.73;100424.66;4966434;28;51290;-54
2021/06/21 11:12:26;;;;;;;;;0.67;0.00;;;;;41.49;16.61;100422.47;4991475;28;52719;-53
2021/06/21 11:15:11;;;;;;;;;1.00;1.00;;;;;40.61;16.63;100418.75;4991471;28;51169;-51
2021/06/21 11:17:42;;;;;;;;;31.75;29.50;;;;;39.60;17.61;100423.09;4991779;28;51100;-53
2021/06/21 11:20:27;;;;;;;;;2.00;2.00;;;;;38.83;18.32;100418.66;4989205;28;51349;-53
2021/06/21 11:22:57;;;;;;;;;1.00;1.00;;;;;38.13;18.91;100415.34;4991071;28;52230;-52
2021/06/21 11:25:24;;;;;;;;;0.00;0.00;;;;;37.37;19.42;100408.59;4991544;28;51046;-50
2021/06/21 11:27:51;;;;;;;;;2.00;0.00;;;;;36.70;20.09;100408.22;4991892;28;51070;-49
2021/06/21 11:30:42;;;;;;;;;1.00;1.00;;;;;35.99;20.51;100398.88;4991700;28;51225;-48